Monte — V2FS2 — position and weather

sailwx.info

Track history (hours):
 
Tides and Currents Weather Stations Pressure Air Temp Water Temp Dewpoint Dewpoint Depression Visibility Wind Speed Wind Dir Waves Ship Positions

Monte

Last reported at 2014-Jul-23 20:32 UTC. Time now 2014-Jul-24 20:06 UTC.
Position N 59°59' E 026°37'.

Length 104 m; draft 4.1 m.

Type: Cargo ship. MMSI: 305777000.

Date/timePositionNaut miles runAvg speedWind from/ knotsBaromVisibWave heightAir tempDewpointWater temp
2014-Jul-23 20:32N 59°59' E 026°37'1010.3
2014-Jul-23 19:33N 59°56' E 026°18'14410.0
2014-Jul-23 05:04N 59°07' E 021°51'5 9.7
2014-Jul-23 04:33N 59°03' E 021°44'10 9.8
2014-Jul-23 03:33N 58°55' E 021°33'10 9.9
2014-Jul-23 02:33N 58°47' E 021°21'1010.1
2014-Jul-23 01:33N 58°39' E 021°09'1210.2
2014-Jul-23 00:25N 58°30' E 020°55'910.1
2014-Jul-22 23:31N 58°23' E 020°45'1010.1
2014-Jul-22 22:33N 58°15' E 020°34'1010.0
2014-Jul-22 21:34N 58°07' E 020°23'1010.3
2014-Jul-22 20:33N 57°59' E 020°10'1010.0
2014-Jul-22 19:33N 57°51' E 019°59'1010.1
2014-Jul-22 18:33N 57°43' E 019°47'1010.1
2014-Jul-22 17:33N 57°35' E 019°36'1010.1
2014-Jul-22 16:33N 57°27' E 019°24'1010.1
2014-Jul-22 15:33N 57°19' E 019°13'10 9.9
2014-Jul-22 14:33N 57°11' E 019°02'1010.1
2014-Jul-22 13:33N 57°03' E 018°50'10 9.9
2014-Jul-22 12:33N 56°55' E 018°39'10 9.8
2014-Jul-22 11:33N 56°48' E 018°27'10 9.9
2014-Jul-22 10:33N 56°41' E 018°14'21 9.8
2014-Jul-22 08:27N 56°28' E 017°44'9 9.7
2014-Jul-22 07:33N 56°23' E 017°32'10 9.8
2014-Jul-22 06:33N 56°17' E 017°18'10 9.9
2014-Jul-22 05:33N 56°11' E 017°04'10 9.9
2014-Jul-22 04:34N 56°05' E 016°49'1010.1
2014-Jul-22 03:33N 55°58' E 016°37'32 9.7
2014-Jul-22 00:17N 55°29' E 016°16'7 9.7
2014-Jul-21 23:33N 55°22' E 016°12'1210.0
2014-Jul-21 22:22N 55°11' E 016°04'67 9.9
2014-Jul-21 15:33N 54°18' E 014°54'10 9.7
2014-Jul-21 14:33N 54°11' E 014°41'10 9.6
2014-Jul-21 13:33N 54°05' E 014°28'10 9.5
2014-Jul-21 12:33N 53°59' E 014°16'2 2.1
2014-Jul-21 11:32N 53°57' E 014°14'0 0.0
2014-Jul-21 10:29N 53°57' E 014°14'0 0.0
2014-Jul-21 09:32N 53°57' E 014°14'0 0.0
2014-Jul-21 08:29N 53°57' E 014°14'0 0.0
2014-Jul-21 07:32N 53°57' E 014°14'0 0.0
2014-Jul-21 06:32N 53°57' E 014°14'0 0.0
2014-Jul-21 05:32N 53°57' E 014°14'0 0.0
2014-Jul-21 04:32N 53°57' E 014°14'0 0.0
2014-Jul-21 03:32N 53°57' E 014°14'0 0.0
2014-Jul-21 02:32N 53°57' E 014°14'0 0.0
2014-Jul-21 01:32N 53°57' E 014°14'0 0.0
2014-Jul-21 00:29N 53°57' E 014°14'0 0.0
2014-Jul-20 23:32N 53°57' E 014°14'0 0.0
2014-Jul-20 22:31N 53°57' E 014°14'0 0.0
2014-Jul-20 21:31N 53°57' E 014°14'0 0.0
2014-Jul-20 20:31N 53°57' E 014°14'0 0.0
2014-Jul-20 19:31N 53°57' E 014°14'0 0.0
2014-Jul-20 18:31N 53°57' E 014°14'0 0.0
2014-Jul-20 17:31N 53°57' E 014°14'0 0.0
2014-Jul-20 16:31N 53°57' E 014°14'0 0.0
2014-Jul-20 15:31N 53°57' E 014°14'0 0.0
2014-Jul-20 14:31N 53°57' E 014°14'0 0.0
2014-Jul-20 13:31N 53°57' E 014°14'0 0.0
2014-Jul-20 12:31N 53°57' E 014°14'0 0.0
2014-Jul-20 11:28N 53°57' E 014°14'0 0.0
2014-Jul-20 10:31N 53°57' E 014°14'0 0.0
2014-Jul-20 09:31N 53°57' E 014°14'0 0.0
2014-Jul-20 08:31N 53°57' E 014°14'0 0.0
2014-Jul-20 07:31N 53°57' E 014°14'0 0.0
2014-Jul-20 06:31N 53°57' E 014°14'0 0.0
2014-Jul-20 05:31N 53°57' E 014°14'0 0.0
2014-Jul-20 04:31N 53°57' E 014°14'0 0.0
2014-Jul-20 03:31N 53°57' E 014°14'0 0.0
2014-Jul-20 02:31N 53°57' E 014°14'0 0.0
2014-Jul-20 01:31N 53°57' E 014°14'0 0.0
2014-Jul-20 00:31N 53°57' E 014°14'0 0.0
2014-Jul-19 23:31N 53°57' E 014°14'0 0.0
2014-Jul-19 22:31N 53°57' E 014°14'0 0.0
2014-Jul-19 21:31N 53°57' E 014°14'0 0.0
2014-Jul-19 20:31N 53°57' E 014°14'0 0.0
2014-Jul-19 19:28N 53°57' E 014°14'0 0.0
2014-Jul-19 18:31N 53°57' E 014°14'0 0.0
2014-Jul-19 17:31N 53°57' E 014°14'0 0.0
2014-Jul-19 16:31N 53°57' E 014°14'0 0.0
2014-Jul-19 15:31N 53°57' E 014°14'0 0.0
2014-Jul-19 14:31N 53°57' E 014°14'0 0.0
2014-Jul-19 13:31N 53°57' E 014°14'0 0.0
2014-Jul-19 12:31N 53°57' E 014°14'0 0.0
2014-Jul-19 11:33N 53°57' E 014°14'0 0.0
2014-Jul-19 10:33N 53°57' E 014°14'0 0.0
2014-Jul-19 09:33N 53°57' E 014°14'0 0.0
2014-Jul-19 08:33N 53°57' E 014°14'0 0.0
2014-Jul-19 07:33N 53°57' E 014°14'0 0.0
2014-Jul-19 06:33N 53°57' E 014°14'0 0.0
2014-Jul-19 05:33N 53°57' E 014°14'0 0.0
2014-Jul-19 04:33N 53°57' E 014°14'0 0.0
2014-Jul-19 03:33N 53°57' E 014°14'0 0.0
2014-Jul-19 02:33N 53°57' E 014°14'0 0.0
2014-Jul-19 01:33N 53°57' E 014°14'0 0.0
2014-Jul-19 00:33N 53°57' E 014°14'0 0.0
2014-Jul-18 23:33N 53°57' E 014°14'0 0.0
2014-Jul-18 22:33N 53°57' E 014°14'0 0.0
2014-Jul-18 21:33N 53°57' E 014°14'0 0.0
2014-Jul-18 20:33N 53°57' E 014°14'0 0.0
2014-Jul-18 19:33N 53°57' E 014°14'0 0.0
2014-Jul-18 18:33N 53°57' E 014°14'0 0.0
2014-Jul-18 17:33N 53°57' E 014°14'0 0.0
2014-Jul-18 16:33N 53°57' E 014°14'4 3.9
2014-Jul-18 15:33N 53°53' E 014°16'9 8.8
2014-Jul-18 14:33N 53°46' E 014°24'1110.6
2014-Jul-18 13:33N 53°38' E 014°35'9 9.3
2014-Jul-18 12:33N 53°28' E 014°36'3 3.0
2014-Jul-18 11:31N 53°26' E 014°34'0 0.0
2014-Jul-18 10:31N 53°26' E 014°34'0 0.0
2014-Jul-18 09:31N 53°26' E 014°34'0 0.0
2014-Jul-18 08:31N 53°26' E 014°34'0 0.0
2014-Jul-18 07:31N 53°26' E 014°34'0 0.0
2014-Jul-18 06:31N 53°26' E 014°34'0 0.0
2014-Jul-18 05:31N 53°26' E 014°34'0 0.0
2014-Jul-18 04:31N 53°26' E 014°34'0 0.0
2014-Jul-18 03:31N 53°26' E 014°34'0 0.0
2014-Jul-18 02:31N 53°26' E 014°34'0 0.0
2014-Jul-18 01:31N 53°26' E 014°34'0 0.0
2014-Jul-18 00:31N 53°26' E 014°34'0 0.0
2014-Jul-17 23:31N 53°26' E 014°34'0 0.0
2014-Jul-17 22:31N 53°26' E 014°34'0 0.0
2014-Jul-17 21:31N 53°26' E 014°34'0 0.0
2014-Jul-17 20:31N 53°26' E 014°34'0 0.0
2014-Jul-17 19:31N 53°26' E 014°34'0 0.0
2014-Jul-17 18:31N 53°26' E 014°34'0 0.0
2014-Jul-17 17:28N 53°26' E 014°34'0 0.0
2014-Jul-17 16:31N 53°26' E 014°34'0 0.0
2014-Jul-17 15:31N 53°26' E 014°34'0 0.0
2014-Jul-17 14:31N 53°26' E 014°34'0 0.0
2014-Jul-17 13:31N 53°26' E 014°34'0 0.0
2014-Jul-17 12:34N 53°26' E 014°34'0 0.0
2014-Jul-17 11:33N 53°26' E 014°34'0 0.0
2014-Jul-17 10:33N 53°26' E 014°34'0 0.0
2014-Jul-17 09:33N 53°26' E 014°34'0 0.0
2014-Jul-17 08:33N 53°26' E 014°34'0 0.0
2014-Jul-17 07:27N 53°26' E 014°34'0 0.0
2014-Jul-17 06:33N 53°26' E 014°34'0 0.0
2014-Jul-17 05:33N 53°26' E 014°34'0 0.0
2014-Jul-17 04:33N 53°26' E 014°34'0 0.0
2014-Jul-17 03:33N 53°26' E 014°34'0 0.0
2014-Jul-17 02:33N 53°26' E 014°34'0 0.0
2014-Jul-17 01:33N 53°26' E 014°34'0 0.0
2014-Jul-17 00:33N 53°26' E 014°34'0 0.0
2014-Jul-16 23:33N 53°26' E 014°34'0 0.0
2014-Jul-16 22:33N 53°26' E 014°34'0 0.0
2014-Jul-16 21:33N 53°26' E 014°34'0 0.0
2014-Jul-16 20:33N 53°26' E 014°34'0 0.0
2014-Jul-16 19:33N 53°26' E 014°34'0 0.0
2014-Jul-16 18:33N 53°26' E 014°34'0 0.0
2014-Jul-16 17:30N 53°26' E 014°34'0 0.0
2014-Jul-16 16:33N 53°26' E 014°34'0 0.0
2014-Jul-16 15:33N 53°26' E 014°34'0 0.0
2014-Jul-16 14:33N 53°26' E 014°34'0 0.0
2014-Jul-16 13:33N 53°26' E 014°34'0 0.0
2014-Jul-16 12:30N 53°26' E 014°34'0 0.0
2014-Jul-16 11:30N 53°26' E 014°34'0 0.0
2014-Jul-16 10:33N 53°26' E 014°34'0 0.0
2014-Jul-16 09:33N 53°26' E 014°34'0 0.1
2014-Jul-16 08:30N 53°26' E 014°34'0 0.0
2014-Jul-16 07:33N 53°25' E 014°34'0 0.0
2014-Jul-16 06:30N 53°26' E 014°34'0 0.0
2014-Jul-16 05:33N 53°26' E 014°34'0 0.0
2014-Jul-16 04:33N 53°25' E 014°34'0 0.0
2014-Jul-16 03:33N 53°25' E 014°34'0 0.0
2014-Jul-16 02:33N 53°26' E 014°34'0 0.0
2014-Jul-16 01:33N 53°25' E 014°34'0 0.0
2014-Jul-16 00:33N 53°26' E 014°34'0 0.0
2014-Jul-15 23:32N 53°25' E 014°34'0 0.0
2014-Jul-15 22:32N 53°26' E 014°34'0 0.0
2014-Jul-15 21:32N 53°26' E 014°34'0 0.0
2014-Jul-15 20:32N 53°25' E 014°34'0 0.0
2014-Jul-15 19:32N 53°25' E 014°34'0 0.0
2014-Jul-15 18:32N 53°25' E 014°34'0 0.0
2014-Jul-15 17:32N 53°25' E 014°34'0 0.0
2014-Jul-15 16:32N 53°25' E 014°34'0 0.0
2014-Jul-15 15:32N 53°25' E 014°34'0 0.0
2014-Jul-15 14:32N 53°25' E 014°34'0 0.0
2014-Jul-15 13:32N 53°25' E 014°34'0 0.0
2014-Jul-15 12:32N 53°25' E 014°34'0 0.0
2014-Jul-15 11:32N 53°25' E 014°34'0 0.0
2014-Jul-15 10:32N 53°25' E 014°34'0 0.0
2014-Jul-15 09:29N 53°25' E 014°34'0 0.0
2014-Jul-15 08:32N 53°25' E 014°34'0 0.0
2014-Jul-15 07:32N 53°25' E 014°34'0 0.0
2014-Jul-15 06:32N 53°25' E 014°34'0 0.0
2014-Jul-15 05:32N 53°25' E 014°34'0 0.0
2014-Jul-15 04:32N 53°25' E 014°34'0 0.0
2014-Jul-15 03:29N 53°25' E 014°34'0 0.0
2014-Jul-15 02:32N 53°25' E 014°34'0 0.0
2014-Jul-15 01:32N 53°25' E 014°34'0 0.0
2014-Jul-15 00:32N 53°25' E 014°34'0 0.0
2014-Jul-14 23:32N 53°25' E 014°34'0 0.0
2014-Jul-14 22:32N 53°25' E 014°34'0 0.0
2014-Jul-14 21:32N 53°25' E 014°34'0 0.0
2014-Jul-14 20:32N 53°25' E 014°34'0 0.0
2014-Jul-14 19:32N 53°25' E 014°34'0 0.0
2014-Jul-14 18:32N 53°25' E 014°34'0 0.0
2014-Jul-14 17:32N 53°25' E 014°34'0 0.0
2014-Jul-14 16:32N 53°25' E 014°34'0 0.0
2014-Jul-14 15:32N 53°25' E 014°34'0 0.0
2014-Jul-14 14:32N 53°25' E 014°34'0 0.0
2014-Jul-14 13:32N 53°25' E 014°34'0 0.0
2014-Jul-14 12:32N 53°25' E 014°34'0 0.0
2014-Jul-14 11:31N 53°25' E 014°34'0 0.0
2014-Jul-14 10:31N 53°25' E 014°34'0 0.0
2014-Jul-14 09:31N 53°25' E 014°34'0 0.0
2014-Jul-14 08:31N 53°25' E 014°34'0 0.0
2014-Jul-14 07:31N 53°25' E 014°34'0 0.0
2014-Jul-14 06:28N 53°25' E 014°34'0 0.0
2014-Jul-14 05:31N 53°25' E 014°34'0 0.0
2014-Jul-14 04:31N 53°25' E 014°34'0 0.0
2014-Jul-14 03:31N 53°25' E 014°34'0 0.0
2014-Jul-14 02:28N 53°25' E 014°34'0 0.0
2014-Jul-14 01:31N 53°25' E 014°34'0 0.0
2014-Jul-14 00:31N 53°25' E 014°34'0 0.0
2014-Jul-13 23:31N 53°25' E 014°34'0 0.0
2014-Jul-13 22:31N 53°25' E 014°34'0 0.0
2014-Jul-13 21:31N 53°25' E 014°34'  
Track history (hours):
 
Tides and Currents Weather Stations Pressure Air Temp Water Temp Dewpoint Dewpoint Depression Visibility Wind Speed Wind Dir Waves Ship Positions

Monte

Last reported at 2014-Jul-23 20:32 UTC. Time now 2014-Jul-24 20:06 UTC.
Position N 59°59' E 026°37'.

Length 104 m; draft 4.1 m.

Type: Cargo ship. MMSI: 305777000.

Date/timePositionNaut miles runAvg speedWind from/ knotsBaromVisibWave heightAir tempDewpointWater temp
2014-Jul-23 20:32N 59°59' E 026°37'1010.3
2014-Jul-23 19:33N 59°56' E 026°18'14410.0
2014-Jul-23 05:04N 59°07' E 021°51'5 9.7
2014-Jul-23 04:33N 59°03' E 021°44'10 9.8
2014-Jul-23 03:33N 58°55' E 021°33'10 9.9
2014-Jul-23 02:33N 58°47' E 021°21'1010.1
2014-Jul-23 01:33N 58°39' E 021°09'1210.2
2014-Jul-23 00:25N 58°30' E 020°55'910.1
2014-Jul-22 23:31N 58°23' E 020°45'1010.1
2014-Jul-22 22:33N 58°15' E 020°34'1010.0
2014-Jul-22 21:34N 58°07' E 020°23'1010.3
2014-Jul-22 20:33N 57°59' E 020°10'1010.0
2014-Jul-22 19:33N 57°51' E 019°59'1010.1
2014-Jul-22 18:33N 57°43' E 019°47'1010.1
2014-Jul-22 17:33N 57°35' E 019°36'1010.1
2014-Jul-22 16:33N 57°27' E 019°24'1010.1
2014-Jul-22 15:33N 57°19' E 019°13'10 9.9
2014-Jul-22 14:33N 57°11' E 019°02'1010.1
2014-Jul-22 13:33N 57°03' E 018°50'10 9.9
2014-Jul-22 12:33N 56°55' E 018°39'10 9.8
2014-Jul-22 11:33N 56°48' E 018°27'10 9.9
2014-Jul-22 10:33N 56°41' E 018°14'21 9.8
2014-Jul-22 08:27N 56°28' E 017°44'9 9.7
2014-Jul-22 07:33N 56°23' E 017°32'10 9.8
2014-Jul-22 06:33N 56°17' E 017°18'10 9.9
2014-Jul-22 05:33N 56°11' E 017°04'10 9.9
2014-Jul-22 04:34N 56°05' E 016°49'1010.1
2014-Jul-22 03:33N 55°58' E 016°37'32 9.7
2014-Jul-22 00:17N 55°29' E 016°16'7 9.7
2014-Jul-21 23:33N 55°22' E 016°12'1210.0
2014-Jul-21 22:22N 55°11' E 016°04'67 9.9
2014-Jul-21 15:33N 54°18' E 014°54'10 9.7
2014-Jul-21 14:33N 54°11' E 014°41'10 9.6
2014-Jul-21 13:33N 54°05' E 014°28'10 9.5
2014-Jul-21 12:33N 53°59' E 014°16'2 2.1
2014-Jul-21 11:32N 53°57' E 014°14'0 0.0
2014-Jul-21 10:29N 53°57' E 014°14'0 0.0
2014-Jul-21 09:32N 53°57' E 014°14'0 0.0
2014-Jul-21 08:29N 53°57' E 014°14'0 0.0
2014-Jul-21 07:32N 53°57' E 014°14'0 0.0
2014-Jul-21 06:32N 53°57' E 014°14'0 0.0
2014-Jul-21 05:32N 53°57' E 014°14'0 0.0
2014-Jul-21 04:32N 53°57' E 014°14'0 0.0
2014-Jul-21 03:32N 53°57' E 014°14'0 0.0
2014-Jul-21 02:32N 53°57' E 014°14'0 0.0
2014-Jul-21 01:32N 53°57' E 014°14'0 0.0
2014-Jul-21 00:29N 53°57' E 014°14'0 0.0
2014-Jul-20 23:32N 53°57' E 014°14'0 0.0
2014-Jul-20 22:31N 53°57' E 014°14'0 0.0
2014-Jul-20 21:31N 53°57' E 014°14'0 0.0
2014-Jul-20 20:31N 53°57' E 014°14'0 0.0
2014-Jul-20 19:31N 53°57' E 014°14'0 0.0
2014-Jul-20 18:31N 53°57' E 014°14'0 0.0
2014-Jul-20 17:31N 53°57' E 014°14'0 0.0
2014-Jul-20 16:31N 53°57' E 014°14'0 0.0
2014-Jul-20 15:31N 53°57' E 014°14'0 0.0
2014-Jul-20 14:31N 53°57' E 014°14'0 0.0
2014-Jul-20 13:31N 53°57' E 014°14'0 0.0
2014-Jul-20 12:31N 53°57' E 014°14'0 0.0
2014-Jul-20 11:28N 53°57' E 014°14'0 0.0
2014-Jul-20 10:31N 53°57' E 014°14'0 0.0
2014-Jul-20 09:31N 53°57' E 014°14'0 0.0
2014-Jul-20 08:31N 53°57' E 014°14'0 0.0
2014-Jul-20 07:31N 53°57' E 014°14'0 0.0
2014-Jul-20 06:31N 53°57' E 014°14'0 0.0
2014-Jul-20 05:31N 53°57' E 014°14'0 0.0
2014-Jul-20 04:31N 53°57' E 014°14'0 0.0
2014-Jul-20 03:31N 53°57' E 014°14'0 0.0
2014-Jul-20 02:31N 53°57' E 014°14'0 0.0
2014-Jul-20 01:31N 53°57' E 014°14'0 0.0
2014-Jul-20 00:31N 53°57' E 014°14'0 0.0
2014-Jul-19 23:31N 53°57' E 014°14'0 0.0
2014-Jul-19 22:31N 53°57' E 014°14'0 0.0
2014-Jul-19 21:31N 53°57' E 014°14'0 0.0
2014-Jul-19 20:31N 53°57' E 014°14'0 0.0
2014-Jul-19 19:28N 53°57' E 014°14'0 0.0
2014-Jul-19 18:31N 53°57' E 014°14'0 0.0
2014-Jul-19 17:31N 53°57' E 014°14'0 0.0
2014-Jul-19 16:31N 53°57' E 014°14'0 0.0
2014-Jul-19 15:31N 53°57' E 014°14'0 0.0
2014-Jul-19 14:31N 53°57' E 014°14'0 0.0
2014-Jul-19 13:31N 53°57' E 014°14'0 0.0
2014-Jul-19 12:31N 53°57' E 014°14'0 0.0
2014-Jul-19 11:33N 53°57' E 014°14'0 0.0
2014-Jul-19 10:33N 53°57' E 014°14'0 0.0
2014-Jul-19 09:33N 53°57' E 014°14'0 0.0
2014-Jul-19 08:33N 53°57' E 014°14'0 0.0
2014-Jul-19 07:33N 53°57' E 014°14'0 0.0
2014-Jul-19 06:33N 53°57' E 014°14'0 0.0
2014-Jul-19 05:33N 53°57' E 014°14'0 0.0
2014-Jul-19 04:33N 53°57' E 014°14'0 0.0
2014-Jul-19 03:33N 53°57' E 014°14'0 0.0
2014-Jul-19 02:33N 53°57' E 014°14'0 0.0
2014-Jul-19 01:33N 53°57' E 014°14'0 0.0
2014-Jul-19 00:33N 53°57' E 014°14'0 0.0
2014-Jul-18 23:33N 53°57' E 014°14'0 0.0
2014-Jul-18 22:33N 53°57' E 014°14'0 0.0
2014-Jul-18 21:33N 53°57' E 014°14'0 0.0
2014-Jul-18 20:33N 53°57' E 014°14'0 0.0
2014-Jul-18 19:33N 53°57' E 014°14'0 0.0
2014-Jul-18 18:33N 53°57' E 014°14'0 0.0
2014-Jul-18 17:33N 53°57' E 014°14'0 0.0
2014-Jul-18 16:33N 53°57' E 014°14'4 3.9
2014-Jul-18 15:33N 53°53' E 014°16'9 8.8
2014-Jul-18 14:33N 53°46' E 014°24'1110.6
2014-Jul-18 13:33N 53°38' E 014°35'9 9.3
2014-Jul-18 12:33N 53°28' E 014°36'3 3.0
2014-Jul-18 11:31N 53°26' E 014°34'0 0.0
2014-Jul-18 10:31N 53°26' E 014°34'0 0.0
2014-Jul-18 09:31N 53°26' E 014°34'0 0.0
2014-Jul-18 08:31N 53°26' E 014°34'0 0.0
2014-Jul-18 07:31N 53°26' E 014°34'0 0.0
2014-Jul-18 06:31N 53°26' E 014°34'0 0.0
2014-Jul-18 05:31N 53°26' E 014°34'0 0.0
2014-Jul-18 04:31N 53°26' E 014°34'0 0.0
2014-Jul-18 03:31N 53°26' E 014°34'0 0.0
2014-Jul-18 02:31N 53°26' E 014°34'0 0.0
2014-Jul-18 01:31N 53°26' E 014°34'0 0.0
2014-Jul-18 00:31N 53°26' E 014°34'0 0.0
2014-Jul-17 23:31N 53°26' E 014°34'0 0.0
2014-Jul-17 22:31N 53°26' E 014°34'0 0.0
2014-Jul-17 21:31N 53°26' E 014°34'0 0.0
2014-Jul-17 20:31N 53°26' E 014°34'0 0.0
2014-Jul-17 19:31N 53°26' E 014°34'0 0.0
2014-Jul-17 18:31N 53°26' E 014°34'0 0.0
2014-Jul-17 17:28N 53°26' E 014°34'0 0.0
2014-Jul-17 16:31N 53°26' E 014°34'0 0.0
2014-Jul-17 15:31N 53°26' E 014°34'0 0.0
2014-Jul-17 14:31N 53°26' E 014°34'0 0.0
2014-Jul-17 13:31N 53°26' E 014°34'0 0.0
2014-Jul-17 12:34N 53°26' E 014°34'0 0.0
2014-Jul-17 11:33N 53°26' E 014°34'0 0.0
2014-Jul-17 10:33N 53°26' E 014°34'0 0.0
2014-Jul-17 09:33N 53°26' E 014°34'0 0.0
2014-Jul-17 08:33N 53°26' E 014°34'0 0.0
2014-Jul-17 07:27N 53°26' E 014°34'0 0.0
2014-Jul-17 06:33N 53°26' E 014°34'0 0.0
2014-Jul-17 05:33N 53°26' E 014°34'0 0.0
2014-Jul-17 04:33N 53°26' E 014°34'0 0.0
2014-Jul-17 03:33N 53°26' E 014°34'0 0.0
2014-Jul-17 02:33N 53°26' E 014°34'0 0.0
2014-Jul-17 01:33N 53°26' E 014°34'0 0.0
2014-Jul-17 00:33N 53°26' E 014°34'0 0.0
2014-Jul-16 23:33N 53°26' E 014°34'0 0.0
2014-Jul-16 22:33N 53°26' E 014°34'0 0.0
2014-Jul-16 21:33N 53°26' E 014°34'0 0.0
2014-Jul-16 20:33N 53°26' E 014°34'0 0.0
2014-Jul-16 19:33N 53°26' E 014°34'0 0.0
2014-Jul-16 18:33N 53°26' E 014°34'0 0.0
2014-Jul-16 17:30N 53°26' E 014°34'0 0.0
2014-Jul-16 16:33N 53°26' E 014°34'0 0.0
2014-Jul-16 15:33N 53°26' E 014°34'0 0.0
2014-Jul-16 14:33N 53°26' E 014°34'0 0.0
2014-Jul-16 13:33N 53°26' E 014°34'0 0.0
2014-Jul-16 12:30N 53°26' E 014°34'0 0.0
2014-Jul-16 11:30N 53°26' E 014°34'0 0.0
2014-Jul-16 10:33N 53°26' E 014°34'0 0.0
2014-Jul-16 09:33N 53°26' E 014°34'0 0.1
2014-Jul-16 08:30N 53°26' E 014°34'0 0.0
2014-Jul-16 07:33N 53°25' E 014°34'0 0.0
2014-Jul-16 06:30N 53°26' E 014°34'0 0.0
2014-Jul-16 05:33N 53°26' E 014°34'0 0.0
2014-Jul-16 04:33N 53°25' E 014°34'0 0.0
2014-Jul-16 03:33N 53°25' E 014°34'0 0.0
2014-Jul-16 02:33N 53°26' E 014°34'0 0.0
2014-Jul-16 01:33N 53°25' E 014°34'0 0.0
2014-Jul-16 00:33N 53°26' E 014°34'0 0.0
2014-Jul-15 23:32N 53°25' E 014°34'0 0.0
2014-Jul-15 22:32N 53°26' E 014°34'0 0.0
2014-Jul-15 21:32N 53°26' E 014°34'0 0.0
2014-Jul-15 20:32N 53°25' E 014°34'0 0.0
2014-Jul-15 19:32N 53°25' E 014°34'0 0.0
2014-Jul-15 18:32N 53°25' E 014°34'0 0.0
2014-Jul-15 17:32N 53°25' E 014°34'0 0.0
2014-Jul-15 16:32N 53°25' E 014°34'0 0.0
2014-Jul-15 15:32N 53°25' E 014°34'0 0.0
2014-Jul-15 14:32N 53°25' E 014°34'0 0.0
2014-Jul-15 13:32N 53°25' E 014°34'0 0.0
2014-Jul-15 12:32N 53°25' E 014°34'0 0.0
2014-Jul-15 11:32N 53°25' E 014°34'0 0.0
2014-Jul-15 10:32N 53°25' E 014°34'0 0.0
2014-Jul-15 09:29N 53°25' E 014°34'0 0.0
2014-Jul-15 08:32N 53°25' E 014°34'0 0.0
2014-Jul-15 07:32N 53°25' E 014°34'0 0.0
2014-Jul-15 06:32N 53°25' E 014°34'0 0.0
2014-Jul-15 05:32N 53°25' E 014°34'0 0.0
2014-Jul-15 04:32N 53°25' E 014°34'0 0.0
2014-Jul-15 03:29N 53°25' E 014°34'0 0.0
2014-Jul-15 02:32N 53°25' E 014°34'0 0.0
2014-Jul-15 01:32N 53°25' E 014°34'0 0.0
2014-Jul-15 00:32N 53°25' E 014°34'0 0.0
2014-Jul-14 23:32N 53°25' E 014°34'0 0.0
2014-Jul-14 22:32N 53°25' E 014°34'0 0.0
2014-Jul-14 21:32N 53°25' E 014°34'0 0.0
2014-Jul-14 20:32N 53°25' E 014°34'0 0.0
2014-Jul-14 19:32N 53°25' E 014°34'0 0.0
2014-Jul-14 18:32N 53°25' E 014°34'0 0.0
2014-Jul-14 17:32N 53°25' E 014°34'0 0.0
2014-Jul-14 16:32N 53°25' E 014°34'0 0.0
2014-Jul-14 15:32N 53°25' E 014°34'0 0.0
2014-Jul-14 14:32N 53°25' E 014°34'0 0.0
2014-Jul-14 13:32N 53°25' E 014°34'0 0.0
2014-Jul-14 12:32N 53°25' E 014°34'0 0.0
2014-Jul-14 11:31N 53°25' E 014°34'0 0.0
2014-Jul-14 10:31N 53°25' E 014°34'0 0.0
2014-Jul-14 09:31N 53°25' E 014°34'0 0.0
2014-Jul-14 08:31N 53°25' E 014°34'0 0.0
2014-Jul-14 07:31N 53°25' E 014°34'0 0.0
2014-Jul-14 06:28N 53°25' E 014°34'0 0.0
2014-Jul-14 05:31N 53°25' E 014°34'0 0.0
2014-Jul-14 04:31N 53°25' E 014°34'0 0.0
2014-Jul-14 03:31N 53°25' E 014°34'0 0.0
2014-Jul-14 02:28N 53°25' E 014°34'0 0.0
2014-Jul-14 01:31N 53°25' E 014°34'0 0.0
2014-Jul-14 00:31N 53°25' E 014°34'0 0.0
2014-Jul-13 23:31N 53°25' E 014°34'0 0.0
2014-Jul-13 22:31N 53°25' E 014°34'0 0.0
2014-Jul-13 21:31N 53°25' E 014°34'  

Dump ship's entire track history